Time;durP1;ratioP1;P1;durP2;ratioP2;P2;SDS_P1;SDS_P2;PMS_P1;PMS_P2;Temp;Humidity;BMP_temperature;BMP_pressure;BME280_temperature;BME280_humidity;BME280_pressure;Samples;Min_cycle;Max_cycle;Signal;HPM_P1;HPM_P2
2023/07/28 04:04:36;;;;;;;2.63;2.10;;;17.20;99.90;;;;;;6028109;23;20442;-59
2023/07/28 04:07:02;;;;;;;3.27;2.87;;;17.30;99.90;;;;;;4973903;28;20443;-59
2023/07/28 04:09:28;;;;;;;2.37;2.20;;;17.30;99.90;;;;;;4973376;28;20950;-59
2023/07/28 04:11:53;;;;;;;2.50;2.10;;;17.30;99.90;;;;;;4976875;28;20214;-59
2023/07/28 04:14:19;;;;;;;3.90;1.87;;;17.30;99.90;;;;;;4977628;28;20434;-59
2023/07/28 04:16:44;;;;;;;2.33;1.73;;;17.30;99.90;;;;;;4978050;28;20210;-59
2023/07/28 04:19:10;;;;;;;1.90;1.80;;;17.40;99.90;;;;;;4977988;28;20201;-59
2023/07/28 04:21:39;;;;;;;2.50;2.30;;;17.40;99.90;;;;;;4977839;28;20271;-59
2023/07/28 04:24:07;;;;;;;1.93;1.83;;;17.40;99.90;;;;;;4959998;28;20172;-60
2023/07/28 04:26:33;;;;;;;2.00;1.80;;;17.40;99.90;;;;;;4977865;28;20391;-60
2023/07/28 04:28:59;;;;;;;1.93;1.73;;;17.40;99.90;;;;;;4977650;28;20737;-59
2023/07/28 04:31:24;;;;;;;2.07;1.93;;;17.40;99.90;;;;;;4977502;28;20186;-59
2023/07/28 04:33:50;;;;;;;2.00;1.67;;;17.50;99.90;;;;;;4976805;28;20226;-59
2023/07/28 04:36:16;;;;;;;2.00;1.90;;;17.50;99.90;;;;;;4976726;28;20291;-59
2023/07/28 04:38:41;;;;;;;2.03;1.83;;;17.50;99.90;;;;;;4977397;28;20670;-60
2023/07/28 04:41:07;;;;;;;1.93;1.83;;;17.50;99.90;;;;;;4977953;28;20183;-59
2023/07/28 04:43:32;;;;;;;2.57;2.13;;;17.60;99.90;;;;;;4977638;28;20238;-60
2023/07/28 04:45:58;;;;;;;173.53;40.73;;;17.60;99.90;;;;;;4977618;28;20233;-59
2023/07/28 04:48:23;;;;;;;1.77;1.67;;;17.60;99.90;;;;;;4978302;28;20202;-59
2023/07/28 04:50:49;;;;;;;84.00;29.73;;;17.50;99.90;;;;;;4960199;28;20170;-59
2023/07/28 04:53:15;;;;;;;2.23;2.03;;;17.50;99.90;;;;;;4977842;28;20184;-60
2023/07/28 04:55:40;;;;;;;24.63;4.63;;;17.50;99.90;;;;;;4977346;28;20197;-59
2023/07/28 04:58:06;;;;;;;1.73;1.63;;;17.40;99.90;;;;;;4960326;28;20237;-61
2023/07/28 05:00:31;;;;;;;1.90;1.80;;;17.40;99.90;;;;;;4959931;28;20181;-61
2023/07/28 05:02:57;;;;;;;1.80;1.70;;;17.30;99.90;;;;;;4960309;28;20176;-60
2023/07/28 05:05:23;;;;;;;2.30;2.07;;;17.30;99.90;;;;;;4976808;28;20255;-60
2023/07/28 05:07:48;;;;;;;2.10;2.00;;;17.20;99.90;;;;;;4977367;28;20184;-60
2023/07/28 05:10:14;;;;;;;2.40;2.13;;;17.10;99.90;;;;;;4977308;28;20195;-60
2023/07/28 05:12:39;;;;;;;1.63;1.50;;;17.10;99.90;;;;;;4977313;28;20176;-60
2023/07/28 05:15:10;;;;;;;2.53;2.33;;;17.00;99.90;;;;;;4976954;28;20201;-61
2023/07/28 05:17:36;;;;;;;1.97;1.87;;;16.90;99.90;;;;;;4977415;28;20182;-59
2023/07/28 05:20:02;;;;;;;2.03;1.83;;;16.90;99.90;;;;;;4959652;28;20471;-60
2023/07/28 05:22:27;;;;;;;1.70;1.60;;;16.90;99.90;;;;;;4976576;28;20413;-60
2023/07/28 05:24:53;;;;;;;2.60;2.40;;;16.90;99.90;;;;;;4976670;28;20194;-59
2023/07/28 05:27:18;;;;;;;2.70;1.80;;;16.90;99.90;;;;;;4977259;28;20517;-59
2023/07/28 05:29:44;;;;;;;2.30;2.20;;;17.00;99.90;;;;;;4977073;28;20184;-59
2023/07/28 05:32:10;;;;;;;2.00;1.90;;;17.00;99.90;;;;;;4977200;28;20207;-59
2023/07/28 05:34:35;;;;;;;2.70;2.50;;;17.00;99.90;;;;;;4976568;28;20281;-58
2023/07/28 05:37:01;;;;;;;2.30;2.17;;;17.00;99.90;;;;;;4976890;28;20639;-59
2023/07/28 05:39:26;;;;;;;2.43;2.00;;;17.00;99.90;;;;;;4976973;28;20207;-59
2023/07/28 05:41:52;;;;;;;1.90;1.80;;;17.10;99.90;;;;;;4976408;28;20170;-61
2023/07/28 05:44:17;;;;;;;2.63;2.43;;;17.10;99.90;;;;;;4957488;28;20200;-60
2023/07/28 05:46:44;;;;;;;2.70;2.50;;;17.10;99.90;;;;;;4957611;29;20199;-59
2023/07/28 05:49:09;;;;;;;2.70;2.50;;;17.20;99.90;;;;;;4957550;29;20540;-60
2023/07/28 05:51:35;;;;;;;4.20;2.13;;;17.20;99.90;;;;;;4957396;28;20415;-62
2023/07/28 05:54:01;;;;;;;4.50;2.70;;;17.30;99.90;;;;;;4972094;28;20292;-61
2023/07/28 05:56:26;;;;;;;2.97;2.67;;;17.40;99.90;;;;;;4976277;28;20206;-61
2023/07/28 05:58:52;;;;;;;2.97;2.70;;;17.50;99.90;;;;;;4976628;28;20200;-61
2023/07/28 06:01:18;;;;;;;3.40;3.20;;;17.50;99.90;;;;;;4959169;28;20246;-60
2023/07/28 06:03:44;;;;;;;2.30;2.10;;;17.50;99.90;;;;;;4962661;28;20182;-62
2023/07/28 06:06:10;;;;;;;1.83;1.73;;;17.50;99.90;;;;;;4956863;28;20484;-60
2023/07/28 06:08:36;;;;;;;72.07;67.20;;;17.60;99.90;;;;;;4956859;28;21116;-60
2023/07/28 06:11:06;;;;;;;26.07;5.70;;;17.60;99.90;;;;;;4957234;29;20180;-60
2023/07/28 06:13:32;;;;;;;54.33;24.30;;;17.60;99.90;;;;;;4967372;28;20179;-60
2023/07/28 06:15:58;;;;;;;140.27;125.40;;;17.70;99.90;;;;;;4975885;28;20456;-59
2023/07/28 06:18:24;;;;;;;3.17;1.93;;;17.70;99.90;;;;;;4969181;28;20486;-59
2023/07/28 06:20:50;;;;;;;3.50;3.20;;;17.70;99.90;;;;;;4956819;29;20442;-60
2023/07/28 06:23:16;;;;;;;5.33;2.70;;;17.70;99.90;;;;;;4956722;28;20927;-59
2023/07/28 06:25:45;;;;;;;3.10;2.80;;;17.70;99.90;;;;;;4956366;29;20264;-59
2023/07/28 06:28:12;;;;;;;4.03;2.63;;;17.70;99.90;;;;;;4956885;28;20183;-60
2023/07/28 06:30:38;;;;;;;4.07;3.43;;;17.80;99.90;;;;;;4956473;28;20381;-61
2023/07/28 06:33:06;;;;;;;2.90;2.70;;;17.80;99.90;;;;;;4956386;28;20411;-60
2023/07/28 06:35:32;;;;;;;5.50;3.03;;;17.70;99.90;;;;;;4955227;28;20919;-59
2023/07/28 06:37:59;;;;;;;6.00;5.40;;;17.80;99.90;;;;;;4957531;28;20431;-60
2023/07/28 06:40:24;;;;;;;6.47;3.80;;;17.80;99.90;;;;;;4975709;28;20992;-60
2023/07/28 06:42:50;;;;;;;3.90;3.57;;;17.80;99.90;;;;;;4975454;28;20409;-61
2023/07/28 06:45:15;;;;;;;6.40;3.37;;;17.70;99.90;;;;;;4957867;28;20206;-60
2023/07/28 06:47:41;;;;;;;6.13;4.43;;;17.70;99.90;;;;;;4958288;28;20260;-59
2023/07/28 06:50:07;;;;;;;12.50;3.53;;;17.70;99.90;;;;;;4940254;29;20522;-61
2023/07/28 06:52:32;;;;;;;7.20;3.60;;;17.70;99.90;;;;;;4956261;28;20343;-59
2023/07/28 06:54:58;;;;;;;3.47;3.07;;;17.80;99.90;;;;;;4955653;28;20203;-59
2023/07/28 06:57:34;;;;;;;5.13;2.60;;;17.70;99.90;;;;;;5091074;28;20577;-61
2023/07/28 07:00:00;;;;;;;4.87;3.50;;;17.70;99.90;;;;;;5090653;28;20416;-61
2023/07/28 07:02:26;;;;;;;4.93;3.07;;;17.60;99.90;;;;;;5091025;28;20491;-59
2023/07/28 07:04:51;;;;;;;3.67;3.33;;;17.60;99.90;;;;;;5083628;28;20538;-61
2023/07/28 07:07:17;;;;;;;4.17;3.50;;;17.60;99.90;;;;;;5070709;28;20169;-60
2023/07/28 07:09:42;;;;;;;3.10;2.83;;;17.70;99.90;;;;;;5069929;28;20591;-62
2023/07/28 07:12:09;;;;;;;3.23;2.97;;;17.70;99.90;;;;;;5070651;28;20172;-60
2023/07/28 07:14:35;;;;;;;3.43;3.13;;;17.80;99.90;;;;;;5069970;28;20534;-60
2023/07/28 07:17:00;;;;;;;6.97;5.10;;;17.80;99.90;;;;;;5070405;28;20453;-60
2023/07/28 07:19:28;;;;;;;3.97;3.50;;;17.80;99.90;;;;;;5069222;28;20423;-60
2023/07/28 07:21:54;;;;;;;6.57;3.93;;;17.80;99.90;;;;;;5069782;28;20252;-60
2023/07/28 07:24:21;;;;;;;4.00;3.40;;;17.80;99.90;;;;;;5069157;28;20422;-60
2023/07/28 07:26:46;;;;;;;2.80;2.50;;;17.80;99.90;;;;;;5070088;28;20413;-60
2023/07/28 07:29:12;;;;;;;6.20;4.00;;;17.90;99.90;;;;;;5069145;28;20466;-61
2023/07/28 07:31:38;;;;;;;3.47;3.17;;;17.90;99.90;;;;;;5069109;28;20180;-60
2023/07/28 07:34:04;;;;;;;4.40;3.40;;;17.90;99.90;;;;;;5068590;28;20410;-59
2023/07/28 07:36:30;;;;;;;5.20;3.30;;;17.90;99.90;;;;;;5068686;28;20520;-60
2023/07/28 07:38:55;;;;;;;5.03;3.30;;;18.00;99.90;;;;;;5068614;28;20219;-60
2023/07/28 07:41:22;;;;;;;3.63;2.73;;;18.10;99.90;;;;;;5068741;28;20410;-60
2023/07/28 07:43:49;;;;;;;3.50;3.20;;;18.10;99.90;;;;;;5068727;28;20181;-60
2023/07/28 07:46:16;;;;;;;2.83;2.63;;;18.20;99.90;;;;;;5068265;28;20436;-60
2023/07/28 07:48:42;;;;;;;6.17;3.47;;;18.30;99.90;;;;;;5069214;28;20855;-60
2023/07/28 07:51:08;;;;;;;5.10;3.10;;;18.30;99.90;;;;;;5069301;28;20443;-60
2023/07/28 07:53:36;;;;;;;3.33;3.07;;;18.50;99.90;;;;;;5069277;28;20541;-60
2023/07/28 07:56:05;;;;;;;3.17;2.93;;;18.60;99.90;;;;;;5069328;28;20441;-60
2023/07/28 07:58:31;;;;;;;3.97;3.63;;;18.90;99.90;;;;;;5069285;28;20407;-61
2023/07/28 08:00:56;;;;;;;4.87;3.27;;;19.10;99.90;;;;;;5069621;28;20793;-60
2023/07/28 08:03:22;;;;;;;4.23;2.80;;;19.20;99.90;;;;;;5069333;28;20188;-61
2023/07/28 08:05:48;;;;;;;2.70;2.50;;;19.30;99.90;;;;;;5069092;28;20188;-60
2023/07/28 08:08:17;;;;;;;5.20;4.80;;;19.40;99.90;;;;;;5059988;28;20169;-60
2023/07/28 08:10:43;;;;;;;4.93;4.43;;;19.40;99.90;;;;;;5056042;28;20256;-60
2023/07/28 08:13:09;;;;;;;5.50;4.47;;;19.50;99.90;;;;;;5056162;28;20393;-60
2023/07/28 08:15:35;;;;;;;7.87;6.03;;;19.50;99.90;;;;;;5055589;28;20455;-60
2023/07/28 08:18:00;;;;;;;5.03;4.57;;;19.60;99.90;;;;;;5055990;28;20506;-60
2023/07/28 08:20:26;;;;;;;4.90;4.50;;;19.70;99.90;;;;;;5055744;28;20170;-60
2023/07/28 08:22:52;;;;;;;4.20;3.80;;;19.70;99.90;;;;;;5055891;28;20227;-60
2023/07/28 08:25:18;;;;;;;2.90;2.70;;;19.80;99.90;;;;;;5055260;28;20403;-59
2023/07/28 08:27:44;;;;;;;3.20;2.97;;;19.80;99.90;;;;;;5056212;28;20616;-60
2023/07/28 08:30:10;;;;;;;3.00;2.80;;;19.80;99.90;;;;;;5055480;28;20500;-60
2023/07/28 08:32:36;;;;;;;5.03;4.53;;;19.80;99.90;;;;;;5055802;28;20177;-60
2023/07/28 08:35:03;;;;;;;4.30;3.90;;;19.90;99.90;;;;;;5054804;28;20522;-60
2023/07/28 08:37:28;;;;;;;3.50;3.20;;;19.90;99.90;;;;;;5055596;28;20825;-59
2023/07/28 08:39:54;;;;;;;2.83;2.63;;;19.90;99.90;;;;;;5054248;28;20390;-61
2023/07/28 08:42:21;;;;;;;2.77;2.40;;;20.00;99.90;;;;;;5055600;28;20182;-61
2023/07/28 08:44:48;;;;;;;2.20;1.97;;;20.00;99.90;;;;;;5055001;28;20773;-61
2023/07/28 08:47:14;;;;;;;1.97;1.87;;;20.00;99.90;;;;;;5055562;28;20408;-61
2023/07/28 08:49:39;;;;;;;3.33;2.20;;;20.00;99.90;;;;;;5055455;28;20469;-60
2023/07/28 08:52:05;;;;;;;2.23;2.03;;;20.00;99.90;;;;;;5055285;28;20503;-60
2023/07/28 08:54:31;;;;;;;2.40;2.17;;;20.10;99.90;;;;;;5054883;28;20209;-60
2023/07/28 08:56:59;;;;;;;2.07;1.97;;;20.10;99.90;;;;;;5055099;28;20205;-61
2023/07/28 08:59:27;;;;;;;2.10;1.90;;;20.10;99.90;;;;;;5055241;28;20177;-61
2023/07/28 09:01:54;;;;;;;2.40;2.20;;;20.20;99.90;;;;;;5055150;28;20762;-59
2023/07/28 09:04:21;;;;;;;3.47;3.17;;;20.20;99.90;;;;;;5054297;28;20439;-59
2023/07/28 09:06:47;;;;;;;2.40;2.20;;;20.10;99.90;;;;;;5055212;28;20451;-60
2023/07/28 09:09:14;;;;;;;2.00;1.90;;;20.10;99.90;;;;;;5054864;28;20416;-60
2023/07/28 09:11:54;;;;;;;2.67;2.47;;;20.10;99.90;;;;;;5055119;28;20442;-61
2023/07/28 09:14:23;;;;;;;3.20;2.90;;;20.20;99.90;;;;;;5054245;28;20431;-60
2023/07/28 09:16:49;;;;;;;2.60;2.40;;;20.10;99.90;;;;;;5054665;28;20430;-60
2023/07/28 09:19:15;;;;;;;2.30;2.20;;;20.10;99.90;;;;;;5053661;28;20479;-60
2023/07/28 09:21:43;;;;;;;2.33;2.23;;;20.20;99.90;;;;;;5054741;28;20412;-60
2023/07/28 09:24:11;;;;;;;2.93;2.60;;;20.20;99.90;;;;;;5053619;28;20235;-61
2023/07/28 09:26:40;;;;;;;2.60;2.40;;;20.30;99.90;;;;;;5054863;28;20397;-60
2023/07/28 09:29:21;;;;;;;2.43;2.30;;;20.50;99.90;;;;;;5054809;28;20420;-59
2023/07/28 09:31:48;;;;;;;5.07;2.40;;;20.90;99.90;;;;;;5053581;28;20419;-60
2023/07/28 09:34:27;;;;;;;1.83;1.67;;;21.70;99.90;;;;;;5053861;28;20431;-60
2023/07/28 09:37:05;;;;;;;2.03;1.93;;;22.30;99.90;;;;;;5054429;28;20506;-60
2023/07/28 09:39:31;;;;;;;2.00;1.80;;;22.80;99.90;;;;;;5053422;28;20416;-61
2023/07/28 09:41:59;;;;;;;1.83;1.73;;;23.40;99.90;;;;;;5053221;28;20418;-60
2023/07/28 09:44:25;;;;;;;2.37;2.17;;;24.20;99.90;;;;;;5053387;28;20425;-61
2023/07/28 09:46:53;;;;;;;1.80;1.70;;;25.10;99.90;;;;;;5054441;28;20383;-61
2023/07/28 09:49:23;;;;;;;2.70;2.10;;;26.30;99.90;;;;;;5054176;28;20420;-61
2023/07/28 09:51:54;;;;;;;2.37;2.07;;;27.30;99.90;;;;;;5054242;28;20383;-61
2023/07/28 09:54:27;;;;;;;1.60;1.30;;;27.80;99.90;;;;;;5055406;28;20402;-61
2023/07/28 09:56:56;;;;;;;1.47;1.37;;;27.90;99.90;;;;;;5055311;28;20796;-61
2023/07/28 09:59:45;;;;;;;1.70;1.60;;;28.10;99.90;;;;;;5055469;28;20471;-60
2023/07/28 10:02:10;;;;;;;1.70;1.47;;;28.10;99.90;;;;;;5055741;28;20383;-62
2023/07/28 10:04:36;;;;;;;1.67;1.57;;;28.20;99.90;;;;;;5054247;28;20447;-61
2023/07/28 10:07:04;;;;;;;1.17;1.10;;;28.10;99.90;;;;;;5054222;28;21846;-61
2023/07/28 10:09:33;;;;;;;2.07;1.87;;;28.10;99.90;;;;;;5054267;28;20208;-61
2023/07/28 10:11:59;;;;;;;3.03;1.73;;;27.90;99.90;;;;;;5054500;28;20420;-61
2023/07/28 10:14:37;;;;;;;6.77;2.10;;;27.60;99.90;;;;;;5055304;28;20422;-61
2023/07/28 10:17:04;;;;;;;2.07;1.80;;;27.20;99.90;;;;;;5054124;28;20463;-60
2023/07/28 10:19:34;;;;;;;1.90;1.80;;;26.70;99.90;;;;;;5053861;28;20424;-61
2023/07/28 10:22:11;;;;;;;1.20;1.10;;;26.20;99.90;;;;;;5055016;28;20386;-60
2023/07/28 10:24:52;;;;;;;4.33;1.60;;;25.90;99.90;;;;;;5053819;28;20838;-60
2023/07/28 10:27:38;;;;;;;1.13;1.10;;;25.40;99.90;;;;;;5053600;28;20417;-61
2023/07/28 10:30:11;;;;;;;1.60;1.00;;;25.00;99.90;;;;;;5053265;28;20402;-61
2023/07/28 10:32:41;;;;;;;1.73;1.63;;;24.80;99.90;;;;;;5053629;28;20755;-60
2023/07/28 10:35:12;;;;;;;1.33;1.20;;;24.70;99.90;;;;;;5033262;28;20433;-61
2023/07/28 10:37:38;;;;;;;1.97;1.30;;;24.60;99.90;;;;;;5033667;28;20388;-61
2023/07/28 10:40:36;;;;;;;1.10;1.03;;;24.60;99.90;;;;;;5033476;28;20484;-60
2023/07/28 10:43:03;;;;;;;1.50;1.40;;;24.50;99.90;;;;;;5035929;28;20174;-61
2023/07/28 10:45:30;;;;;;;1.20;0.83;;;24.40;99.90;;;;;;5053106;28;20460;-60
2023/07/28 10:47:59;;;;;;;1.60;1.50;;;24.40;99.90;;;;;;5053437;28;20784;-61
2023/07/28 10:50:27;;;;;;;1.53;1.43;;;24.20;99.90;;;;;;5053328;28;20486;-61
2023/07/28 10:52:53;;;;;;;2.17;1.50;;;24.10;99.90;;;;;;5053219;28;20438;-60
2023/07/28 10:55:21;;;;;;;1.00;1.00;;;24.00;99.90;;;;;;5051459;28;20459;-60
2023/07/28 10:57:49;;;;;;;2.77;1.83;;;23.90;99.90;;;;;;5053507;28;20177;-60
2023/07/28 11:00:17;;;;;;;1.40;1.30;;;23.80;99.90;;;;;;5053229;28;20418;-59
2023/07/28 11:02:50;;;;;;;1.60;1.50;;;23.80;99.90;;;;;;5052120;28;20400;-60
2023/07/28 11:05:23;;;;;;;1.00;1.00;;;23.80;99.90;;;;;;5052354;28;20983;-60
2023/07/28 11:07:51;;;;;;;1.17;1.17;;;23.70;99.90;;;;;;5053297;28;20399;-61
2023/07/28 11:10:18;;;;;;;1.30;1.20;;;23.70;99.90;;;;;;5053218;28;20391;-62
2023/07/28 11:12:46;;;;;;;0.80;0.80;;;23.70;99.90;;;;;;5053142;28;20472;-60
2023/07/28 11:15:13;;;;;;;0.97;0.87;;;23.60;99.90;;;;;;5052330;28;20410;-61
2023/07/28 11:17:44;;;;;;;0.90;0.90;;;23.60;99.90;;;;;;5053145;28;20390;-60
2023/07/28 11:20:21;;;;;;;1.03;1.03;;;23.70;99.90;;;;;;5053136;28;20740;-60
2023/07/28 11:22:52;;;;;;;1.40;1.30;;;23.70;99.90;;;;;;5052867;28;20422;-60
2023/07/28 11:25:18;;;;;;;0.97;0.97;;;23.80;99.90;;;;;;5052372;28;20475;-60
2023/07/28 11:27:48;;;;;;;0.93;0.93;;;23.90;99.90;;;;;;5053061;28;20478;-61
2023/07/28 11:30:17;;;;;;;0.90;0.90;;;24.10;99.90;;;;;;5053011;28;20412;-60
2023/07/28 11:32:45;;;;;;;1.23;1.00;;;24.30;99.90;;;;;;5052827;28;20395;-61
2023/07/28 11:35:12;;;;;;;1.00;1.00;;;24.50;99.90;;;;;;5052283;28;20835;-60
2023/07/28 11:37:39;;;;;;;1.40;1.20;;;24.80;99.90;;;;;;5053016;28;20415;-60
2023/07/28 11:40:07;;;;;;;1.37;1.27;;;25.10;99.90;;;;;;5052857;28;20455;-61
2023/07/28 11:42:40;;;;;;;1.40;1.30;;;25.40;99.90;;;;;;5053387;28;20384;-62
2023/07/28 11:45:07;;;;;;;3.13;1.90;;;25.80;99.90;;;;;;5056101;28;20439;-61
2023/07/28 11:47:32;;;;;;;1.20;1.10;;;26.10;99.90;;;;;;5056690;28;20406;-61
2023/07/28 11:49:58;;;;;;;1.67;1.40;;;26.30;99.90;;;;;;5056573;28;20477;-61
2023/07/28 11:52:29;;;;;;;2.10;1.40;;;26.40;99.90;;;;;;5056301;28;20228;-61
2023/07/28 11:54:54;;;;;;;1.20;1.10;;;26.40;99.90;;;;;;5056043;28;20413;-61
2023/07/28 11:57:21;;;;;;;0.90;0.90;;;26.50;99.90;;;;;;5056106;28;20459;-60
2023/07/28 11:59:46;;;;;;;1.13;1.07;;;26.60;99.90;;;;;;5057046;28;20633;-62
2023/07/28 12:02:12;;;;;;;1.13;0.93;;;26.90;99.90;;;;;;5055995;28;20434;-61
2023/07/28 12:04:39;;;;;;;1.00;0.93;;;27.00;99.90;;;;;;5055845;28;20548;-60
2023/07/28 12:07:16;;;;;;;0.90;0.90;;;27.00;99.90;;;;;;5056238;28;20173;-61
2023/07/28 12:09:51;;;;;;;1.07;1.00;;;27.10;99.90;;;;;;5056070;28;20402;-60
2023/07/28 12:12:19;;;;;;;1.07;0.50;;;26.80;99.90;;;;;;5055762;28;20921;-61
2023/07/28 12:14:48;;;;;;;1.00;1.00;;;26.80;99.90;;;;;;5055692;28;20877;-61
2023/07/28 12:17:14;;;;;;;1.07;0.97;;;26.60;99.90;;;;;;5055894;28;20474;-61
2023/07/28 12:19:55;;;;;;;1.30;1.20;;;26.50;99.90;;;;;;5056104;28;20461;-61
2023/07/28 12:22:20;;;;;;;0.83;0.80;;;26.40;99.90;;;;;;5055642;28;20403;-60
2023/07/28 12:24:46;;;;;;;1.30;1.20;;;26.00;99.90;;;;;;5053831;28;20446;-61
2023/07/28 12:27:13;;;;;;;0.90;0.80;;;25.60;99.90;;;;;;5055433;28;20285;-61
2023/07/28 12:29:38;;;;;;;1.07;1.00;;;25.40;99.90;;;;;;5055579;28;20175;-62
2023/07/28 12:32:05;;;;;;;0.90;0.90;;;25.30;99.90;;;;;;5055403;28;20481;-60
2023/07/28 12:34:30;;;;;;;1.03;1.03;;;25.10;99.90;;;;;;5055322;28;20841;-61
2023/07/28 12:36:56;;;;;;;1.57;1.33;;;24.80;99.90;;;;;;5055659;28;20466;-58
2023/07/28 12:39:22;;;;;;;0.87;0.67;;;24.70;99.90;;;;;;5055043;28;20188;-60
2023/07/28 12:41:47;;;;;;;1.00;0.90;;;24.50;99.90;;;;;;5055183;28;20173;-60
2023/07/28 12:44:13;;;;;;;1.23;1.13;;;24.30;99.90;;;;;;5055209;28;20382;-61
2023/07/28 12:46:39;;;;;;;1.40;1.27;;;24.10;99.90;;;;;;5055809;28;20165;-60
2023/07/28 12:49:06;;;;;;;1.30;0.90;;;23.90;99.90;;;;;;5055021;28;20185;-60
2023/07/28 12:51:32;;;;;;;1.03;0.93;;;23.80;99.90;;;;;;5055423;28;20770;-61
2023/07/28 12:53:58;;;;;;;0.60;0.60;;;23.80;99.90;;;;;;5054108;28;20410;-59
2023/07/28 12:56:23;;;;;;;1.23;0.90;;;23.70;99.90;;;;;;5054927;28;20205;-61
2023/07/28 12:58:49;;;;;;;0.87;0.87;;;23.80;99.90;;;;;;5054714;28;20543;-61
2023/07/28 13:01:15;;;;;;;1.00;0.90;;;23.90;99.90;;;;;;5055272;28;20174;-61
2023/07/28 13:03:40;;;;;;;0.90;0.70;;;23.90;99.90;;;;;;5053405;28;20192;-60
2023/07/28 13:06:06;;;;;;;1.40;1.30;;;23.90;99.90;;;;;;5054584;28;20197;-59
2023/07/28 13:08:32;;;;;;;0.83;0.83;;;23.80;99.90;;;;;;5054595;28;20181;-60
2023/07/28 13:10:57;;;;;;;0.90;0.90;;;23.80;99.90;;;;;;5054680;28;20521;-61
2023/07/28 13:13:23;;;;;;;0.83;0.83;;;23.70;99.90;;;;;;5054583;28;20189;-61
2023/07/28 13:15:49;;;;;;;1.43;0.93;;;23.70;99.90;;;;;;5054424;28;20698;-60
2023/07/28 13:18:14;;;;;;;0.80;0.80;;;23.70;99.90;;;;;;5055078;28;20682;-61
2023/07/28 13:20:40;;;;;;;1.13;0.70;;;23.70;99.90;;;;;;5053971;28;20173;-60
2023/07/28 13:23:05;;;;;;;1.00;1.00;;;23.80;99.90;;;;;;5054502;28;20178;-60
2023/07/28 13:25:31;;;;;;;1.07;1.07;;;23.80;99.90;;;;;;5053977;28;20213;-60
2023/07/28 13:27:56;;;;;;;1.37;1.27;;;23.80;99.90;;;;;;5054461;28;20236;-60
2023/07/28 13:30:22;;;;;;;1.60;1.20;;;23.90;99.90;;;;;;5054121;28;20196;-58
2023/07/28 13:32:48;;;;;;;1.20;1.10;;;23.90;99.90;;;;;;5052627;28;20174;-61
2023/07/28 13:35:14;;;;;;;1.13;0.83;;;23.90;99.90;;;;;;5053604;28;20686;-61
2023/07/28 13:37:40;;;;;;;0.80;0.80;;;23.80;99.90;;;;;;5053194;28;20213;-61
2023/07/28 13:40:06;;;;;;;1.17;1.00;;;23.80;99.90;;;;;;5053643;28;20395;-60
2023/07/28 13:42:32;;;;;;;1.23;1.13;;;23.70;99.90;;;;;;5054368;28;20174;-60
2023/07/28 13:44:57;;;;;;;1.10;1.10;;;23.70;99.90;;;;;;5053868;28;20429;-61
2023/07/28 13:47:23;;;;;;;1.27;1.17;;;23.60;99.90;;;;;;5053793;28;20181;-60
2023/07/28 13:49:48;;;;;;;1.20;1.10;;;23.40;99.90;;;;;;5053332;28;20657;-60
2023/07/28 13:52:14;;;;;;;1.20;0.83;;;23.20;99.90;;;;;;5053805;28;20192;-60
2023/07/28 13:54:39;;;;;;;1.37;1.27;;;23.00;99.90;;;;;;5053567;28;20211;-61
2023/07/28 13:57:05;;;;;;;1.07;1.07;;;22.90;99.90;;;;;;5053475;28;20228;-61
2023/07/28 13:59:31;;;;;;;1.33;1.23;;;22.70;99.90;;;;;;5053439;28;20631;-60
2023/07/28 14:01:58;;;;;;;2.53;1.73;;;22.30;99.90;;;;;;5052334;28;20490;-62
2023/07/28 14:04:23;;;;;;;145.00;9.87;;;22.00;99.90;;;;;;5053311;28;20197;-63
2023/07/28 14:06:49;;;;;;;1.40;1.30;;;21.60;99.90;;;;;;5052690;28;20422;-61
2023/07/28 14:09:14;;;;;;;119.47;26.07;;;21.30;99.90;;;;;;5053221;28;20174;-61
2023/07/28 14:11:40;;;;;;;1.70;1.60;;;21.10;99.90;;;;;;5067708;28;20185;-61
2023/07/28 14:14:06;;;;;;;1.50;1.40;;;20.90;99.90;;;;;;5067654;28;20188;-61
2023/07/28 14:16:31;;;;;;;2.50;1.20;;;20.60;99.90;;;;;;5053079;28;20201;-62
2023/07/28 14:18:57;;;;;;;1.13;1.13;;;20.40;99.90;;;;;;5053066;28;20185;-62
2023/07/28 14:21:23;;;;;;;2.80;1.70;;;20.30;99.90;;;;;;5053361;28;20181;-61
2023/07/28 14:23:48;;;;;;;1.80;1.70;;;20.10;99.90;;;;;;5052693;28;20258;-61
2023/07/28 14:26:14;;;;;;;1.57;1.47;;;19.90;99.90;;;;;;5053551;28;20523;-61
2023/07/28 14:28:40;;;;;;;1.90;1.80;;;19.80;99.90;;;;;;5053324;28;20182;-61
2023/07/28 14:31:05;;;;;;;1.30;1.23;;;19.60;99.90;;;;;;5053440;28;20180;-63
2023/07/28 14:33:31;;;;;;;1.87;1.70;;;19.40;99.90;;;;;;5052649;28;20184;-61
2023/07/28 14:35:56;;;;;;;5.50;3.00;;;19.30;99.90;;;;;;5053168;28;20216;-61
2023/07/28 14:38:22;;;;;;;2.70;2.43;;;19.30;99.90;;;;;;5053121;28;20210;-60
2023/07/28 14:40:48;;;;;;;4.30;2.67;;;19.20;99.90;;;;;;5052271;28;20187;-60
2023/07/28 14:43:15;;;;;;;3.70;3.30;;;19.30;99.90;;;;;;5049781;28;20219;-60
2023/07/28 14:45:41;;;;;;;2.87;2.67;;;19.40;99.90;;;;;;5032916;28;20429;-60
2023/07/28 14:48:07;;;;;;;3.00;2.43;;;19.50;99.90;;;;;;5038674;28;20896;-61
2023/07/28 14:50:33;;;;;;;2.43;2.23;;;19.50;99.90;;;;;;5052958;28;20511;-60
2023/07/28 14:52:59;;;;;;;1.90;1.80;;;19.60;99.90;;;;;;5053056;28;20188;-60
2023/07/28 14:55:25;;;;;;;2.23;2.10;;;19.60;99.90;;;;;;5052313;28;20207;-62
2023/07/28 14:57:51;;;;;;;1.90;1.80;;;19.60;99.90;;;;;;5052628;28;20798;-62
2023/07/28 15:00:17;;;;;;;2.13;2.03;;;19.60;99.90;;;;;;5052727;28;20448;-60
2023/07/28 15:02:43;;;;;;;2.00;1.80;;;19.70;99.90;;;;;;5052066;28;20424;-62
2023/07/28 15:05:09;;;;;;;2.40;2.20;;;19.60;99.90;;;;;;5052205;28;20576;-61
2023/07/28 15:07:37;;;;;;;3.90;1.80;;;19.50;99.90;;;;;;5051222;28;20266;-60
2023/07/28 15:10:03;;;;;;;2.63;2.43;;;19.50;99.90;;;;;;5039090;28;20898;-60
2023/07/28 15:12:29;;;;;;;2.30;2.10;;;19.50;99.90;;;;;;5052096;28;20434;-59
2023/07/28 15:14:55;;;;;;;3.60;2.60;;;19.60;99.90;;;;;;5052373;28;20448;-60
2023/07/28 15:17:20;;;;;;;2.00;1.87;;;19.70;99.90;;;;;;5053111;28;20465;-60
2023/07/28 15:19:46;;;;;;;2.30;2.13;;;19.70;99.90;;;;;;5056017;28;20234;-60
2023/07/28 15:22:11;;;;;;;2.10;1.63;;;19.70;99.90;;;;;;5056697;28;20185;-60
2023/07/28 15:24:37;;;;;;;2.17;1.67;;;19.70;99.90;;;;;;5056497;28;20210;-60
2023/07/28 15:27:03;;;;;;;2.33;2.03;;;19.70;99.90;;;;;;5055572;28;20178;-60
2023/07/28 15:29:29;;;;;;;3.80;2.77;;;19.70;99.90;;;;;;5056175;28;20191;-61
2023/07/28 15:31:59;;;;;;;2.13;1.93;;;19.70;99.90;;;;;;5055232;28;20424;-60
2023/07/28 15:34:24;;;;;;;2.17;1.87;;;19.80;99.90;;;;;;5053033;28;20209;-60
2023/07/28 15:36:50;;;;;;;1.50;1.40;;;19.80;99.90;;;;;;5056182;28;20463;-59
2023/07/28 15:39:16;;;;;;;3.20;1.90;;;19.80;99.90;;;;;;5056413;28;20178;-60
2023/07/28 15:41:42;;;;;;;2.27;2.07;;;20.00;99.90;;;;;;5055985;28;20430;-58
2023/07/28 15:44:07;;;;;;;2.67;1.93;;;20.00;99.90;;;;;;5055726;28;20646;-59
2023/07/28 15:46:34;;;;;;;1.60;1.50;;;20.10;99.90;;;;;;5056220;28;20209;-59
2023/07/28 15:49:00;;;;;;;2.80;1.83;;;20.20;99.90;;;;;;5055389;28;20256;-59
2023/07/28 15:51:25;;;;;;;2.20;1.83;;;20.20;99.90;;;;;;5056115;28;20523;-59
2023/07/28 15:53:51;;;;;;;3.33;3.10;;;20.20;99.90;;;;;;5055471;28;20186;-60
2023/07/28 15:56:16;;;;;;;3.17;2.60;;;20.20;99.90;;;;;;5055862;28;20220;-62
2023/07/28 15:58:42;;;;;;;2.13;2.03;;;20.20;99.90;;;;;;5054371;28;20181;-60
2023/07/28 16:01:07;;;;;;;2.80;2.37;;;20.20;99.90;;;;;;5055712;28;20585;-59
2023/07/28 16:03:33;;;;;;;1.70;1.60;;;20.10;99.90;;;;;;5055604;28;20185;-59
2023/07/28 16:05:59;;;;;;;3.30;2.20;;;20.10;99.90;;;;;;5056123;28;20197;-59
2023/07/28 16:08:24;;;;;;;2.00;1.90;;;20.10;99.90;;;;;;5054621;28;20662;-60
2023/07/28 16:10:50;;;;;;;2.10;1.57;;;20.00;99.90;;;;;;5054539;28;20185;-59
2023/07/28 16:13:19;;;;;;;4.90;2.63;;;20.00;99.90;;;;;;5054676;28;20268;-62
2023/07/28 16:15:45;;;;;;;2.50;2.30;;;20.00;99.90;;;;;;5054343;28;20295;-58
2023/07/28 16:18:11;;;;;;;1.90;1.80;;;20.00;99.90;;;;;;5055755;28;20416;-59
2023/07/28 16:20:36;;;;;;;2.83;2.63;;;20.00;99.90;;;;;;5055174;28;20466;-65
2023/07/28 16:23:02;;;;;;;3.30;2.37;;;20.00;99.90;;;;;;5052771;28;20516;-60
2023/07/28 16:25:27;;;;;;;3.30;2.90;;;20.00;99.90;;;;;;5051619;28;20194;-61
2023/07/28 16:27:53;;;;;;;2.23;2.03;;;20.00;99.90;;;;;;5054482;28;20527;-60
2023/07/28 16:30:19;;;;;;;1.97;1.87;;;20.00;99.90;;;;;;5055273;28;20262;-63
2023/07/28 16:32:44;;;;;;;2.50;2.30;;;19.90;99.90;;;;;;5054706;28;20169;-63
2023/07/28 16:35:10;;;;;;;2.10;1.90;;;19.90;99.90;;;;;;5054391;28;20196;-58
2023/07/28 16:37:36;;;;;;;2.60;2.33;;;19.80;99.90;;;;;;5055502;28;20232;-61
2023/07/28 16:40:02;;;;;;;2.80;2.60;;;19.80;99.90;;;;;;5055176;28;20181;-62
2023/07/28 16:42:28;;;;;;;2.37;2.17;;;19.80;99.90;;;;;;5055146;28;20181;-63
2023/07/28 16:44:53;;;;;;;2.47;2.27;;;19.80;99.90;;;;;;5053331;28;20877;-62
2023/07/28 16:47:19;;;;;;;2.73;2.47;;;19.80;99.90;;;;;;5055059;28;20181;-62